Barton-upon-Humber, United Kingdom
Current Conditions -  °F | °C
As of 1:20 AM on Wednesday 26 Nov 2014 (Local Time) from EGNJ Reporting Station
Few Clouds Few Clouds  
Wind Chill: 50°   Ceiling: Unl
Heat Index: 50°   Visibility: 6mi
Dew Point: 46°   Wind: 10mph
Humidity: 87%   Direction: 80°E
Pressure: 30.03"   Gusts: NA
Location:  53.68°N, 0.44°W
Report Text: EGNJ 260120Z AUTO 08009KT 9999 FEW019/// 10/08 Q1017
Loading
Personal Weather Stations






























Interactive Weather Map New forecast layout! Learn more

10-Day Weather Forecast

Advertisements
Track Severe Weather on mobile